sensor_id;sensor_type;location;lat;lon;timestamp;pressure;altitude;pressure_sealevel;temperature
64175;BMP280;50469;50.438;-119.202;2022-09-17T00:01:36;96777.53;;;21.21
64175;BMP280;50469;50.438;-119.202;2022-09-17T00:04:05;96795.63;;;20.20
64175;BMP280;50469;50.438;-119.202;2022-09-17T00:06:35;96800.75;;;19.77
64175;BMP280;50469;50.438;-119.202;2022-09-17T00:09:05;96799.19;;;20.11
64175;BMP280;50469;50.438;-119.202;2022-09-17T00:11:37;96799.63;;;19.69
64175;BMP280;50469;50.438;-119.202;2022-09-17T00:14:07;96811.22;;;19.05
64175;BMP280;50469;50.438;-119.202;2022-09-17T00:16:42;96802.16;;;18.78
64175;BMP280;50469;50.438;-119.202;2022-09-17T00:19:14;96816.53;;;18.69
64175;BMP280;50469;50.438;-119.202;2022-09-17T00:21:45;96834.44;;;18.52
64175;BMP280;50469;50.438;-119.202;2022-09-17T00:24:17;96834.22;;;18.65
64175;BMP280;50469;50.438;-119.202;2022-09-17T00:26:46;96848.59;;;18.32
64175;BMP280;50469;50.438;-119.202;2022-09-17T00:29:14;96854.41;;;18.40
64175;BMP280;50469;50.438;-119.202;2022-09-17T00:31:42;96859.38;;;18.41
64175;BMP280;50469;50.438;-119.202;2022-09-17T00:34:11;96865.16;;;18.01
64175;BMP280;50469;50.438;-119.202;2022-09-17T00:36:39;96878.66;;;17.77
64175;BMP280;50469;50.438;-119.202;2022-09-17T00:39:11;96892.63;;;17.94
64175;BMP280;50469;50.438;-119.202;2022-09-17T00:41:43;96903.38;;;18.03
64175;BMP280;50469;50.438;-119.202;2022-09-17T00:44:41;96917.09;;;17.48
64175;BMP280;50469;50.438;-119.202;2022-09-17T00:47:36;96923.88;;;17.16
64175;BMP280;50469;50.438;-119.202;2022-09-17T00:52:45;96944.75;;;16.87
64175;BMP280;50469;50.438;-119.202;2022-09-17T00:55:35;96967.34;;;16.62
64175;BMP280;50469;50.438;-119.202;2022-09-17T00:58:06;96958.78;;;16.64
64175;BMP280;50469;50.438;-119.202;2022-09-17T01:00:34;96961.56;;;16.82
64175;BMP280;50469;50.438;-119.202;2022-09-17T01:03:03;96986.09;;;16.26
64175;BMP280;50469;50.438;-119.202;2022-09-17T01:05:49;96991.50;;;16.16
64175;BMP280;50469;50.438;-119.202;2022-09-17T01:17:03;97053.56;;;15.38
64175;BMP280;50469;50.438;-119.202;2022-09-17T01:30:37;97136.03;;;15.51
64175;BMP280;50469;50.438;-119.202;2022-09-17T01:33:21;97148.22;;;15.31
64175;BMP280;50469;50.438;-119.202;2022-09-17T01:36:19;97137.84;;;15.16
64175;BMP280;50469;50.438;-119.202;2022-09-17T01:41:46;97150.13;;;14.92
64175;BMP280;50469;50.438;-119.202;2022-09-17T01:44:22;97160.88;;;14.66
64175;BMP280;50469;50.438;-119.202;2022-09-17T01:47:10;97144.69;;;14.53
64175;BMP280;50469;50.438;-119.202;2022-09-17T01:49:51;97158.69;;;14.61
64175;BMP280;50469;50.438;-119.202;2022-09-17T01:52:22;97159.56;;;14.58
64175;BMP280;50469;50.438;-119.202;2022-09-17T01:54:58;97158.66;;;14.48
64175;BMP280;50469;50.438;-119.202;2022-09-17T01:57:56;97155.50;;;14.37
64175;BMP280;50469;50.438;-119.202;2022-09-17T02:00:24;97147.81;;;14.35
64175;BMP280;50469;50.438;-119.202;2022-09-17T02:05:39;97148.69;;;14.32
64175;BMP280;50469;50.438;-119.202;2022-09-17T02:08:33;97144.66;;;14.24
64175;BMP280;50469;50.438;-119.202;2022-09-17T02:13:37;97151.09;;;14.14
64175;BMP280;50469;50.438;-119.202;2022-09-17T02:16:20;97153.44;;;14.12
64175;BMP280;50469;50.438;-119.202;2022-09-17T02:27:21;97164.16;;;13.83
64175;BMP280;50469;50.438;-119.202;2022-09-17T02:29:54;97163.31;;;13.69
64175;BMP280;50469;50.438;-119.202;2022-09-17T02:32:22;97158.09;;;13.62
64175;BMP280;50469;50.438;-119.202;2022-09-17T02:34:50;97158.03;;;13.66
64175;BMP280;50469;50.438;-119.202;2022-09-17T02:37:18;97156.09;;;13.66
64175;BMP280;50469;50.438;-119.202;2022-09-17T02:39:46;97157.59;;;13.67
64175;BMP280;50469;50.438;-119.202;2022-09-17T02:42:28;97152.22;;;13.51
64175;BMP280;50469;50.438;-119.202;2022-09-17T02:59:14;97172.56;;;13.16
64175;BMP280;50469;50.438;-119.202;2022-09-17T03:01:55;97170.59;;;13.00
64175;BMP280;50469;50.438;-119.202;2022-09-17T03:04:26;97174.84;;;12.97
64175;BMP280;50469;50.438;-119.202;2022-09-17T03:06:55;97174.66;;;12.88
64175;BMP280;50469;50.438;-119.202;2022-09-17T03:09:24;97164.03;;;12.81
64175;BMP280;50469;50.438;-119.202;2022-09-17T03:11:52;97164.16;;;12.74
64175;BMP280;50469;50.438;-119.202;2022-09-17T03:14:20;97159.66;;;12.71
64175;BMP280;50469;50.438;-119.202;2022-09-17T03:16:48;97164.56;;;12.52
64175;BMP280;50469;50.438;-119.202;2022-09-17T03:19:16;97160.44;;;12.28
64175;BMP280;50469;50.438;-119.202;2022-09-17T03:21:48;97169.31;;;12.01
64175;BMP280;50469;50.438;-119.202;2022-09-17T03:24:19;97168.59;;;11.97
64175;BMP280;50469;50.438;-119.202;2022-09-17T03:26:47;97166.28;;;11.96
64175;BMP280;50469;50.438;-119.202;2022-09-17T03:29:18;97175.97;;;11.89
64175;BMP280;50469;50.438;-119.202;2022-09-17T03:31:46;97170.03;;;11.78
64175;BMP280;50469;50.438;-119.202;2022-09-17T03:34:17;97170.47;;;11.73
64175;BMP280;50469;50.438;-119.202;2022-09-17T03:36:48;97175.59;;;11.64
64175;BMP280;50469;50.438;-119.202;2022-09-17T03:39:19;97181.44;;;11.59
64175;BMP280;50469;50.438;-119.202;2022-09-17T03:41:50;97183.13;;;11.45
64175;BMP280;50469;50.438;-119.202;2022-09-17T03:44:18;97182.91;;;11.33
64175;BMP280;50469;50.438;-119.202;2022-09-17T03:46:49;97180.31;;;11.25
64175;BMP280;50469;50.438;-119.202;2022-09-17T03:49:20;97184.56;;;11.23
64175;BMP280;50469;50.438;-119.202;2022-09-17T03:51:49;97186.59;;;11.12
64175;BMP280;50469;50.438;-119.202;2022-09-17T03:54:19;97193.84;;;11.15
64175;BMP280;50469;50.438;-119.202;2022-09-17T03:56:48;97192.72;;;11.16
64175;BMP280;50469;50.438;-119.202;2022-09-17T03:59:16;97191.66;;;11.06
64175;BMP280;50469;50.438;-119.202;2022-09-17T04:01:47;97196.50;;;10.80
64175;BMP280;50469;50.438;-119.202;2022-09-17T04:04:17;97201.03;;;10.87
64175;BMP280;50469;50.438;-119.202;2022-09-17T04:06:48;97193.00;;;10.87
64175;BMP280;50469;50.438;-119.202;2022-09-17T04:09:16;97195.44;;;10.74
64175;BMP280;50469;50.438;-119.202;2022-09-17T04:11:49;97200.91;;;10.64
64175;BMP280;50469;50.438;-119.202;2022-09-17T04:14:20;97207.16;;;10.50
64175;BMP280;50469;50.438;-119.202;2022-09-17T04:16:50;97199.50;;;10.48
64175;BMP280;50469;50.438;-119.202;2022-09-17T04:19:18;97201.44;;;10.48
64175;BMP280;50469;50.438;-119.202;2022-09-17T04:21:46;97203.41;;;10.44
64175;BMP280;50469;50.438;-119.202;2022-09-17T04:24:14;97190.72;;;10.48
64175;BMP280;50469;50.438;-119.202;2022-09-17T04:26:42;97202.63;;;10.43
64175;BMP280;50469;50.438;-119.202;2022-09-17T04:29:12;97194.22;;;10.41
64175;BMP280;50469;50.438;-119.202;2022-09-17T04:31:41;97201.25;;;10.28
64175;BMP280;50469;50.438;-119.202;2022-09-17T04:34:09;97192.06;;;10.25
64175;BMP280;50469;50.438;-119.202;2022-09-17T04:36:37;97198.13;;;10.29
64175;BMP280;50469;50.438;-119.202;2022-09-17T04:39:05;97197.34;;;10.32
64175;BMP280;50469;50.438;-119.202;2022-09-17T04:41:33;97198.56;;;10.28
64175;BMP280;50469;50.438;-119.202;2022-09-17T04:44:01;97186.72;;;10.25
64175;BMP280;50469;50.438;-119.202;2022-09-17T04:46:32;97197.16;;;10.09
64175;BMP280;50469;50.438;-119.202;2022-09-17T04:49:00;97197.22;;;10.02
64175;BMP280;50469;50.438;-119.202;2022-09-17T04:51:33;97188.44;;;9.94
64175;BMP280;50469;50.438;-119.202;2022-09-17T04:54:02;97185.88;;;9.83
64175;BMP280;50469;50.438;-119.202;2022-09-17T04:56:30;97182.47;;;9.79
64175;BMP280;50469;50.438;-119.202;2022-09-17T04:59:03;97187.84;;;9.68
64175;BMP280;50469;50.438;-119.202;2022-09-17T05:01:31;97178.00;;;9.51
64175;BMP280;50469;50.438;-119.202;2022-09-17T05:03:59;97185.66;;;9.49
64175;BMP280;50469;50.438;-119.202;2022-09-17T05:06:27;97187.16;;;9.57
64175;BMP280;50469;50.438;-119.202;2022-09-17T05:08:55;97181.81;;;9.57
64175;BMP280;50469;50.438;-119.202;2022-09-17T05:11:24;97181.47;;;9.51
64175;BMP280;50469;50.438;-119.202;2022-09-17T05:13:52;97183.38;;;9.51
64175;BMP280;50469;50.438;-119.202;2022-09-17T05:16:20;97186.84;;;9.44
64175;BMP280;50469;50.438;-119.202;2022-09-17T05:18:48;97180.41;;;9.35
64175;BMP280;50469;50.438;-119.202;2022-09-17T05:21:17;97180.03;;;9.36
64175;BMP280;50469;50.438;-119.202;2022-09-17T05:23:45;97188.78;;;9.29
64175;BMP280;50469;50.438;-119.202;2022-09-17T05:26:16;97188.81;;;9.26
64175;BMP280;50469;50.438;-119.202;2022-09-17T05:28:44;97181.97;;;9.25
64175;BMP280;50469;50.438;-119.202;2022-09-17T05:31:12;97188.13;;;9.18
64175;BMP280;50469;50.438;-119.202;2022-09-17T05:33:40;97188.50;;;9.13
64175;BMP280;50469;50.438;-119.202;2022-09-17T05:36:11;97191.97;;;9.03
64175;BMP280;50469;50.438;-119.202;2022-09-17T05:38:41;97186.66;;;8.85
64175;BMP280;50469;50.438;-119.202;2022-09-17T05:41:12;97188.97;;;8.79
64175;BMP280;50469;50.438;-119.202;2022-09-17T05:43:42;97190.47;;;8.84
64175;BMP280;50469;50.438;-119.202;2022-09-17T05:46:13;97193.50;;;8.93
64175;BMP280;50469;50.438;-119.202;2022-09-17T05:48:41;97191.97;;;8.85
64175;BMP280;50469;50.438;-119.202;2022-09-17T05:51:09;97193.16;;;8.77
64175;BMP280;50469;50.438;-119.202;2022-09-17T05:53:37;97185.53;;;8.75
64175;BMP280;50469;50.438;-119.202;2022-09-17T05:56:05;97182.13;;;8.64
64175;BMP280;50469;50.438;-119.202;2022-09-17T05:58:34;97186.72;;;8.49
64175;BMP280;50469;50.438;-119.202;2022-09-17T06:01:02;97182.91;;;8.11
64175;BMP280;50469;50.438;-119.202;2022-09-17T06:03:30;97182.06;;;7.89
64175;BMP280;50469;50.438;-119.202;2022-09-17T06:05:59;97181.31;;;7.88
64175;BMP280;50469;50.438;-119.202;2022-09-17T06:08:30;97183.25;;;8.02
64175;BMP280;50469;50.438;-119.202;2022-09-17T06:11:04;97187.84;;;8.16
64175;BMP280;50469;50.438;-119.202;2022-09-17T06:13:33;97192.03;;;8.20
64175;BMP280;50469;50.438;-119.202;2022-09-17T06:16:01;97191.28;;;8.16
64175;BMP280;50469;50.438;-119.202;2022-09-17T06:18:33;97187.47;;;8.14
64175;BMP280;50469;50.438;-119.202;2022-09-17T06:21:04;97193.56;;;8.21
64175;BMP280;50469;50.438;-119.202;2022-09-17T06:23:32;97187.47;;;8.21
64175;BMP280;50469;50.438;-119.202;2022-09-17T06:26:01;97190.53;;;8.23
64175;BMP280;50469;50.438;-119.202;2022-09-17T06:28:33;97187.84;;;8.19
64175;BMP280;50469;50.438;-119.202;2022-09-17T06:31:08;97195.47;;;8.17
64175;BMP280;50469;50.438;-119.202;2022-09-17T06:33:37;97192.41;;;8.12
64175;BMP280;50469;50.438;-119.202;2022-09-17T06:36:12;97190.13;;;8.03
64175;BMP280;50469;50.438;-119.202;2022-09-17T06:38:41;97184.03;;;7.99
64175;BMP280;50469;50.438;-119.202;2022-09-17T06:41:12;97180.59;;;8.02
64175;BMP280;50469;50.438;-119.202;2022-09-17T06:43:40;97177.91;;;8.02
64175;BMP280;50469;50.438;-119.202;2022-09-17T06:46:09;97174.50;;;8.01
64175;BMP280;50469;50.438;-119.202;2022-09-17T06:48:43;97168.03;;;7.92
64175;BMP280;50469;50.438;-119.202;2022-09-17T06:51:12;97172.59;;;7.91
64175;BMP280;50469;50.438;-119.202;2022-09-17T06:53:43;97166.09;;;7.82
64175;BMP280;50469;50.438;-119.202;2022-09-17T06:56:11;97166.81;;;7.75
64175;BMP280;50469;50.438;-119.202;2022-09-17T06:58:39;97169.16;;;7.84
64175;BMP280;50469;50.438;-119.202;2022-09-17T07:01:11;97167.44;;;7.25
64175;BMP280;50469;50.438;-119.202;2022-09-17T07:03:41;97168.66;;;7.39
64175;BMP280;50469;50.438;-119.202;2022-09-17T07:06:09;97170.59;;;7.56
64175;BMP280;50469;50.438;-119.202;2022-09-17T07:08:37;97167.19;;;7.59
64175;BMP280;50469;50.438;-119.202;2022-09-17T07:11:09;97177.41;;;7.53
64175;BMP280;50469;50.438;-119.202;2022-09-17T07:13:37;97168.72;;;7.60
64175;BMP280;50469;50.438;-119.202;2022-09-17T07:16:06;97170.59;;;7.59
64175;BMP280;50469;50.438;-119.202;2022-09-17T07:18:34;97176.31;;;7.62
64175;BMP280;50469;50.438;-119.202;2022-09-17T07:21:06;97178.59;;;7.56
64175;BMP280;50469;50.438;-119.202;2022-09-17T07:23:36;97174.03;;;7.56
64175;BMP280;50469;50.438;-119.202;2022-09-17T07:26:07;97176.31;;;7.58
64175;BMP280;50469;50.438;-119.202;2022-09-17T07:28:38;97165.97;;;7.42
64175;BMP280;50469;50.438;-119.202;2022-09-17T07:31:07;97164.47;;;7.45
64175;BMP280;50469;50.438;-119.202;2022-09-17T07:33:42;97164.81;;;7.40
64175;BMP280;50469;50.438;-119.202;2022-09-17T07:36:14;97166.69;;;7.25
64175;BMP280;50469;50.438;-119.202;2022-09-17T07:38:42;97156.78;;;7.32
64175;BMP280;50469;50.438;-119.202;2022-09-17T07:41:16;97162.50;;;7.31
64175;BMP280;50469;50.438;-119.202;2022-09-17T07:43:45;97150.69;;;7.28
64175;BMP280;50469;50.438;-119.202;2022-09-17T07:46:18;97153.75;;;7.23
64175;BMP280;50469;50.438;-119.202;2022-09-17T07:48:47;97161.72;;;7.23
64175;BMP280;50469;50.438;-119.202;2022-09-17T07:51:21;97156.41;;;7.30
64175;BMP280;50469;50.438;-119.202;2022-09-17T07:53:52;97162.13;;;7.25
64175;BMP280;50469;50.438;-119.202;2022-09-17T07:56:24;97155.22;;;7.21
64175;BMP280;50469;50.438;-119.202;2022-09-17T07:58:55;97160.97;;;7.26
64175;BMP280;50469;50.438;-119.202;2022-09-17T08:01:27;97155.28;;;7.31
64175;BMP280;50469;50.438;-119.202;2022-09-17T08:03:55;97156.41;;;7.23
64175;BMP280;50469;50.438;-119.202;2022-09-17T08:06:26;97159.41;;;7.18
64175;BMP280;50469;50.438;-119.202;2022-09-17T08:08:58;97153.66;;;7.09
64175;BMP280;50469;50.438;-119.202;2022-09-17T08:11:27;97160.09;;;7.04
64175;BMP280;50469;50.438;-119.202;2022-09-17T08:14:16;97164.66;;;7.00
64175;BMP280;50469;50.438;-119.202;2022-09-17T08:16:44;97155.16;;;7.03
64175;BMP280;50469;50.438;-119.202;2022-09-17T08:19:12;97158.97;;;7.02
64175;BMP280;50469;50.438;-119.202;2022-09-17T08:21:40;97162.75;;;7.04
64175;BMP280;50469;50.438;-119.202;2022-09-17T08:24:08;97159.72;;;7.06
64175;BMP280;50469;50.438;-119.202;2022-09-17T08:26:39;97158.97;;;7.02
64175;BMP280;50469;50.438;-119.202;2022-09-17T08:29:10;97160.44;;;6.99
64175;BMP280;50469;50.438;-119.202;2022-09-17T08:31:40;97168.78;;;6.94
64175;BMP280;50469;50.438;-119.202;2022-09-17T08:34:09;97166.84;;;6.91
64175;BMP280;50469;50.438;-119.202;2022-09-17T08:36:37;97166.09;;;6.87
64175;BMP280;50469;50.438;-119.202;2022-09-17T08:39:05;97157.38;;;6.90
64175;BMP280;50469;50.438;-119.202;2022-09-17T08:42:00;97169.94;;;6.89
64175;BMP280;50469;50.438;-119.202;2022-09-17T08:44:40;97162.72;;;6.93
64175;BMP280;50469;50.438;-119.202;2022-09-17T08:49:56;97172.22;;;6.94
64175;BMP280;50469;50.438;-119.202;2022-09-17T08:52:42;97172.19;;;6.87
64175;BMP280;50469;50.438;-119.202;2022-09-17T08:55:19;97167.66;;;6.91
64175;BMP280;50469;50.438;-119.202;2022-09-17T09:00:38;97174.44;;;6.82
64175;BMP280;50469;50.438;-119.202;2022-09-17T09:03:35;97169.75;;;6.61
64175;BMP280;50469;50.438;-119.202;2022-09-17T09:06:05;97180.00;;;6.66
64175;BMP280;50469;50.438;-119.202;2022-09-17T09:08:59;97180.47;;;6.75
64175;BMP280;50469;50.438;-119.202;2022-09-17T09:11:31;97177.06;;;6.74
64175;BMP280;50469;50.438;-119.202;2022-09-17T09:14:05;97175.50;;;6.77
64175;BMP280;50469;50.438;-119.202;2022-09-17T09:16:44;97168.72;;;6.80
64175;BMP280;50469;50.438;-119.202;2022-09-17T09:19:23;97177.81;;;6.79
64175;BMP280;50469;50.438;-119.202;2022-09-17T09:24:43;97182.75;;;6.73
64175;BMP280;50469;50.438;-119.202;2022-09-17T09:38:09;97188.72;;;6.59
64175;BMP280;50469;50.438;-119.202;2022-09-17T09:43:21;97181.06;;;6.50
64175;BMP280;50469;50.438;-119.202;2022-09-17T09:54:57;97182.53;;;6.48
64175;BMP280;50469;50.438;-119.202;2022-09-17T09:57:42;97179.16;;;6.51
64175;BMP280;50469;50.438;-119.202;2022-09-17T10:00:57;97184.09;;;6.49
64175;BMP280;50469;50.438;-119.202;2022-09-17T10:05:56;97181.41;;;6.45
64175;BMP280;50469;50.438;-119.202;2022-09-17T10:08:29;97185.16;;;6.44
64175;BMP280;50469;50.438;-119.202;2022-09-17T10:11:19;97185.84;;;6.34
64175;BMP280;50469;50.438;-119.202;2022-09-17T10:13:45;97176.72;;;6.31
64175;BMP280;50469;50.438;-119.202;2022-09-17T10:16:23;97182.84;;;6.39
64175;BMP280;50469;50.438;-119.202;2022-09-17T10:21:36;97176.88;;;6.49
64175;BMP280;50469;50.438;-119.202;2022-09-17T10:24:25;97179.91;;;6.51
64175;BMP280;50469;50.438;-119.202;2022-09-17T10:27:05;97186.00;;;6.48
64175;BMP280;50469;50.438;-119.202;2022-09-17T10:29:34;97182.16;;;6.46
64175;BMP280;50469;50.438;-119.202;2022-09-17T10:32:05;97186.72;;;6.45
64175;BMP280;50469;50.438;-119.202;2022-09-17T10:34:33;97188.97;;;6.43
64175;BMP280;50469;50.438;-119.202;2022-09-17T10:37:01;97184.00;;;6.42
64175;BMP280;50469;50.438;-119.202;2022-09-17T10:44:52;97182.50;;;6.41
64175;BMP280;50469;50.438;-119.202;2022-09-17T10:50:03;97189.31;;;6.35
64175;BMP280;50469;50.438;-119.202;2022-09-17T10:52:33;97191.19;;;6.34
64175;BMP280;50469;50.438;-119.202;2022-09-17T10:55:20;97185.06;;;6.30
64175;BMP280;50469;50.438;-119.202;2022-09-17T11:14:49;97182.69;;;6.18
64175;BMP280;50469;50.438;-119.202;2022-09-17T11:17:45;97188.34;;;6.16
64175;BMP280;50469;50.438;-119.202;2022-09-17T11:37:25;97184.06;;;6.04
64175;BMP280;50469;50.438;-119.202;2022-09-17T11:42:36;97179.47;;;6.01
64175;BMP280;50469;50.438;-119.202;2022-09-17T11:48:14;97183.94;;;5.90
64175;BMP280;50469;50.438;-119.202;2022-09-17T11:50:56;97183.88;;;5.86
64175;BMP280;50469;50.438;-119.202;2022-09-17T12:02:15;97181.19;;;5.83
64175;BMP280;50469;50.438;-119.202;2022-09-17T12:13:22;97192.72;;;5.64
64175;BMP280;50469;50.438;-119.202;2022-09-17T12:16:08;97183.34;;;5.70
64175;BMP280;50469;50.438;-119.202;2022-09-17T12:21:51;97191.88;;;5.56
64175;BMP280;50469;50.438;-119.202;2022-09-17T12:24:30;97188.81;;;5.54
64175;BMP280;50469;50.438;-119.202;2022-09-17T12:27:15;97191.19;;;5.59
64175;BMP280;50469;50.438;-119.202;2022-09-17T12:50:03;97189.91;;;5.49
64175;BMP280;50469;50.438;-119.202;2022-09-17T12:55:32;97191.03;;;5.48
64175;BMP280;50469;50.438;-119.202;2022-09-17T13:00:43;97189.81;;;5.42
64175;BMP280;50469;50.438;-119.202;2022-09-17T13:11:32;97198.38;;;5.28
64175;BMP280;50469;50.438;-119.202;2022-09-17T13:17:06;97193.25;;;5.13
64175;BMP280;50469;50.438;-119.202;2022-09-17T13:22:41;97201.44;;;5.04
64175;BMP280;50469;50.438;-119.202;2022-09-17T13:25:11;97206.69;;;5.00
64175;BMP280;50469;50.438;-119.202;2022-09-17T13:27:42;97199.78;;;4.92
64175;BMP280;50469;50.438;-119.202;2022-09-17T13:30:12;97211.97;;;4.97
64175;BMP280;50469;50.438;-119.202;2022-09-17T13:32:41;97210.84;;;4.98
64175;BMP280;50469;50.438;-119.202;2022-09-17T13:37:53;97216.53;;;4.96
64175;BMP280;50469;50.438;-119.202;2022-09-17T13:40:32;97224.09;;;4.98
64175;BMP280;50469;50.438;-119.202;2022-09-17T13:43:07;97211.00;;;5.09
64175;BMP280;50469;50.438;-119.202;2022-09-17T13:48:31;97226.50;;;5.06
64175;BMP280;50469;50.438;-119.202;2022-09-17T13:54:05;97230.22;;;5.02
64175;BMP280;50469;50.438;-119.202;2022-09-17T13:56:41;97231.75;;;5.03
64175;BMP280;50469;50.438;-119.202;2022-09-17T14:09:55;97241.25;;;5.04
64175;BMP280;50469;50.438;-119.202;2022-09-17T14:17:59;97242.19;;;5.15
64175;BMP280;50469;50.438;-119.202;2022-09-17T14:20:28;97232.69;;;5.14
64175;BMP280;50469;50.438;-119.202;2022-09-17T14:23:00;97246.66;;;5.11
64175;BMP280;50469;50.438;-119.202;2022-09-17T14:25:41;97252.81;;;5.19
64175;BMP280;50469;50.438;-119.202;2022-09-17T14:30:55;97256.09;;;5.35
64175;BMP280;50469;50.438;-119.202;2022-09-17T14:33:27;97257.34;;;5.41
64175;BMP280;50469;50.438;-119.202;2022-09-17T14:36:09;97258.56;;;5.47
64175;BMP280;50469;50.438;-119.202;2022-09-17T14:38:47;97265.81;;;5.54
64175;BMP280;50469;50.438;-119.202;2022-09-17T14:41:23;97261.84;;;5.67
64175;BMP280;50469;50.438;-119.202;2022-09-17T14:44:11;97264.28;;;5.80
64175;BMP280;50469;50.438;-119.202;2022-09-17T14:49:28;97261.03;;;5.97
64175;BMP280;50469;50.438;-119.202;2022-09-17T14:52:00;97262.28;;;6.03
64175;BMP280;50469;50.438;-119.202;2022-09-17T14:54:30;97261.44;;;5.99
64175;BMP280;50469;50.438;-119.202;2022-09-17T15:02:22;97257.59;;;6.27
64175;BMP280;50469;50.438;-119.202;2022-09-17T15:04:53;97254.53;;;6.28
64175;BMP280;50469;50.438;-119.202;2022-09-17T15:07:22;97256.19;;;6.37
64175;BMP280;50469;50.438;-119.202;2022-09-17T15:09:53;97252.16;;;6.57
64175;BMP280;50469;50.438;-119.202;2022-09-17T15:12:30;97249.84;;;6.56
64175;BMP280;50469;50.438;-119.202;2022-09-17T15:14:58;97251.06;;;6.65
64175;BMP280;50469;50.438;-119.202;2022-09-17T15:17:29;97257.97;;;6.70
64175;BMP280;50469;50.438;-119.202;2022-09-17T15:20:02;97257.63;;;6.79
64175;BMP280;50469;50.438;-119.202;2022-09-17T15:22:37;97255.47;;;6.91
64175;BMP280;50469;50.438;-119.202;2022-09-17T15:25:16;97251.03;;;7.10
64175;BMP280;50469;50.438;-119.202;2022-09-17T15:27:51;97249.56;;;7.20
64175;BMP280;50469;50.438;-119.202;2022-09-17T15:30:22;97254.19;;;7.30
64175;BMP280;50469;50.438;-119.202;2022-09-17T15:32:54;97263.75;;;7.38
64175;BMP280;50469;50.438;-119.202;2022-09-17T15:35:26;97263.81;;;7.49
64175;BMP280;50469;50.438;-119.202;2022-09-17T15:37:57;97258.91;;;7.62
64175;BMP280;50469;50.438;-119.202;2022-09-17T15:40:45;97256.25;;;7.58
64175;BMP280;50469;50.438;-119.202;2022-09-17T15:43:33;97260.56;;;7.91
64175;BMP280;50469;50.438;-119.202;2022-09-17T15:46:26;97259.44;;;8.10
64175;BMP280;50469;50.438;-119.202;2022-09-17T15:49:00;97263.28;;;8.23
64175;BMP280;50469;50.438;-119.202;2022-09-17T15:51:34;97264.81;;;8.32
64175;BMP280;50469;50.438;-119.202;2022-09-17T15:54:05;97268.28;;;8.39
64175;BMP280;50469;50.438;-119.202;2022-09-17T15:56:55;97265.25;;;8.70
64175;BMP280;50469;50.438;-119.202;2022-09-17T15:59:29;97262.94;;;8.79
64175;BMP280;50469;50.438;-119.202;2022-09-17T16:02:00;97268.28;;;8.97
64175;BMP280;50469;50.438;-119.202;2022-09-17T16:04:35;97264.44;;;9.05
64175;BMP280;50469;50.438;-119.202;2022-09-17T16:09:38;97270.50;;;9.16
64175;BMP280;50469;50.438;-119.202;2022-09-17T16:12:07;97267.84;;;9.16
64175;BMP280;50469;50.438;-119.202;2022-09-17T16:14:42;97270.47;;;9.34
64175;BMP280;50469;50.438;-119.202;2022-09-17T16:19:49;97270.41;;;9.48
64175;BMP280;50469;50.438;-119.202;2022-09-17T16:22:17;97268.13;;;9.54
64175;BMP280;50469;50.438;-119.202;2022-09-17T16:24:45;97268.44;;;9.67
64175;BMP280;50469;50.438;-119.202;2022-09-17T16:27:25;97265.75;;;9.74
64175;BMP280;50469;50.438;-119.202;2022-09-17T16:30:00;97265.34;;;9.76
64175;BMP280;50469;50.438;-119.202;2022-09-17T16:32:31;97270.13;;;10.13
64175;BMP280;50469;50.438;-119.202;2022-09-17T16:34:59;97261.97;;;10.34
64175;BMP280;50469;50.438;-119.202;2022-09-17T16:37:27;97264.44;;;10.56
64175;BMP280;50469;50.438;-119.202;2022-09-17T16:39:58;97270.81;;;10.28
64175;BMP280;50469;50.438;-119.202;2022-09-17T16:42:30;97258.00;;;10.50
64175;BMP280;50469;50.438;-119.202;2022-09-17T16:44:58;97257.13;;;10.64
64175;BMP280;50469;50.438;-119.202;2022-09-17T16:47:26;97261.56;;;10.85
64175;BMP280;50469;50.438;-119.202;2022-09-17T16:49:54;97256.34;;;11.04
64175;BMP280;50469;50.438;-119.202;2022-09-17T16:52:25;97245.06;;;11.24
64175;BMP280;50469;50.438;-119.202;2022-09-17T16:54:56;97260.41;;;11.20
64175;BMP280;50469;50.438;-119.202;2022-09-17T16:57:26;97251.66;;;11.16
64175;BMP280;50469;50.438;-119.202;2022-09-17T16:59:55;97248.81;;;10.92
64175;BMP280;50469;50.438;-119.202;2022-09-17T17:02:23;97256.25;;;11.12
64175;BMP280;50469;50.438;-119.202;2022-09-17T17:04:51;97249.53;;;11.34
64175;BMP280;50469;50.438;-119.202;2022-09-17T17:07:19;97245.25;;;11.40
64175;BMP280;50469;50.438;-119.202;2022-09-17T17:09:47;97236.41;;;11.43
64175;BMP280;50469;50.438;-119.202;2022-09-17T17:12:18;97234.38;;;11.51
64175;BMP280;50469;50.438;-119.202;2022-09-17T17:14:46;97225.84;;;11.60
64175;BMP280;50469;50.438;-119.202;2022-09-17T17:17:16;97231.31;;;11.80
64175;BMP280;50469;50.438;-119.202;2022-09-17T17:19:44;97228.19;;;11.85
64175;BMP280;50469;50.438;-119.202;2022-09-17T17:22:15;97230.00;;;11.91
64175;BMP280;50469;50.438;-119.202;2022-09-17T17:24:43;97224.13;;;12.00
64175;BMP280;50469;50.438;-119.202;2022-09-17T17:27:11;97222.78;;;12.12
64175;BMP280;50469;50.438;-119.202;2022-09-17T17:29:42;97217.72;;;12.18
64175;BMP280;50469;50.438;-119.202;2022-09-17T17:32:10;97223.66;;;12.29
64175;BMP280;50469;50.438;-119.202;2022-09-17T17:34:38;97211.25;;;12.82
64175;BMP280;50469;50.438;-119.202;2022-09-17T17:37:09;97215.69;;;12.49
64175;BMP280;50469;50.438;-119.202;2022-09-17T17:39:37;97209.88;;;12.50
64175;BMP280;50469;50.438;-119.202;2022-09-17T17:42:06;97208.28;;;12.76
64175;BMP280;50469;50.438;-119.202;2022-09-17T17:44:37;97213.88;;;13.06
64175;BMP280;50469;50.438;-119.202;2022-09-17T17:47:07;97202.00;;;13.23
64175;BMP280;50469;50.438;-119.202;2022-09-17T17:49:35;97193.03;;;13.66
64175;BMP280;50469;50.438;-119.202;2022-09-17T17:52:03;97188.09;;;13.61
64175;BMP280;50469;50.438;-119.202;2022-09-17T17:54:32;97186.31;;;13.54
64175;BMP280;50469;50.438;-119.202;2022-09-17T17:57:00;97188.94;;;13.58
64175;BMP280;50469;50.438;-119.202;2022-09-17T17:59:32;97183.91;;;13.92
64175;BMP280;50469;50.438;-119.202;2022-09-17T18:02:00;97181.66;;;13.91
64175;BMP280;50469;50.438;-119.202;2022-09-17T18:04:28;97178.72;;;14.02
64175;BMP280;50469;50.438;-119.202;2022-09-17T18:06:56;97176.97;;;14.24